LFHP 201900Z AUTO 35011KT 9999 BKN023 OVC028 00/M03 Q1027

ElémentsDécodage
LFHP Station météo située sur l'aérodrome de LE-PUY loudes
201900Z émis le 20 du mois à 19h00 UTC
AUTO Bulletin édité par un automate
35011KT vent du 350°, 11 noeuds
9999 visibilité horizontale supérieure à 10 Km
BKN023 nuages morcelés (5/8 à 7/8) à 2300 pieds
OVC028 couverture nuageuse totale (8/8) à 2800 pieds
00/M03 température 00°C, point de rosée -03°C
 soit une humidité relative de 80%
Q1027 la pression au niveau de la mer (QNH) est de 1027 hPa